Al Rekayyat — V7QF3 — position and weather

sailwx.info

Track history (hours):
 
Tides and Currents Weather Stations Pressure Air Temp Water Temp Dewpoint Dewpoint Depression Visibility Wind Speed Wind Dir Waves Ship Positions

Al Rekayyat

Last reported at 2016-Jan-10 22:33 UTC. Time now 2016-Feb-09 15:58 UTC.
Position N 02°07' E 102°06'.
Warning: this ship's position is 29 days out of date.

Length 315 m; draft 9.4 m.

Type: Ship (hazmat cat D). MMSI: 538003347.

Date/timePositionNaut miles runAvg speedWind from/ knotsBaromVisibWave heightAir tempDewpointWater temp
2016-Jan-10 22:33N 02°07' E 102°06'1615.4
2016-Jan-10 21:29N 01°55' E 102°18'1616.8
2016-Jan-10 20:33N 01°49' E 102°32'7316.4
2016-Jan-10 16:06N 01°12' E 103°35'610.9
2016-Jan-10 15:33N 01°11' E 103°41'0 0.2
2016-Jan-10 14:29N 01°11' E 103°41'0 0.1
2016-Jan-10 11:19N 01°11' E 103°41'0 0.1
2016-Jan-10 10:31N 01°11' E 103°41'0 0.1
2016-Jan-10 09:32N 01°11' E 103°41'0 0.1
2016-Jan-10 08:33N 01°11' E 103°41'0 0.0
2016-Jan-10 07:24N 01°11' E 103°41'0 0.0
2016-Jan-10 02:19N 01°11' E 103°41'0 0.2
2016-Jan-10 01:31N 01°11' E 103°41'0 0.1
2016-Jan-09 22:27N 01°11' E 103°41'0 0.0
2016-Jan-09 21:28N 01°11' E 103°41'0 0.0
2016-Jan-09 20:16N 01°11' E 103°41'0 0.1
2016-Jan-09 19:20N 01°11' E 103°41'0 0.1
2016-Jan-09 18:18N 01°11' E 103°41'1 0.2
2016-Jan-09 13:31N 01°10' E 103°41'6 6.3
2016-Jan-09 12:33N 01°10' E 103°47'2 2.5
2016-Jan-09 11:32N 01°11' E 103°49'5 5.0
2016-Jan-09 10:33N 01°13' E 103°54'8 8.4
2016-Jan-09 09:33N 01°15' E 104°02'  
2016-Jan-06 09:34N 21°51' E 113°13'3 2.8
2016-Jan-06 08:26N 21°54' E 113°13'0 0.0
2016-Jan-06 07:32N 21°54' E 113°13'0 0.0
2016-Jan-06 06:33N 21°54' E 113°13'0 0.0
2016-Jan-06 05:28N 21°54' E 113°13'0 0.0
2016-Jan-06 04:28N 21°54' E 113°13'0 0.0
2016-Jan-06 03:23N 21°54' E 113°13'0 0.0
2016-Jan-06 02:30N 21°54' E 113°13'0 0.0
2016-Jan-06 01:30N 21°54' E 113°13'0 0.0
2016-Jan-06 00:31N 21°54' E 113°13'0 0.0
2016-Jan-05 23:32N 21°54' E 113°13'0 0.0
2016-Jan-05 22:32N 21°54' E 113°13'0 0.0
2016-Jan-05 21:33N 21°54' E 113°13'0 0.0
2016-Jan-05 20:33N 21°54' E 113°13'0 0.0
2016-Jan-05 19:22N 21°54' E 113°13'0 0.0
2016-Jan-05 18:29N 21°54' E 113°13'0 0.0
2016-Jan-05 17:30N 21°54' E 113°13'0 0.0
2016-Jan-05 16:30N 21°54' E 113°13'0 0.0
2016-Jan-05 15:31N 21°54' E 113°13'0 0.0
2016-Jan-05 14:26N 21°54' E 113°13'0 0.0
2016-Jan-05 13:32N 21°54' E 113°13'0 0.0
2016-Jan-05 12:33N 21°54' E 113°13'0 0.0
2016-Jan-05 11:28N 21°54' E 113°13'0 0.0
2016-Jan-05 10:28N 21°54' E 113°13'0 0.0
2016-Jan-05 09:29N 21°54' E 113°13'0 0.0
2016-Jan-05 08:30N 21°54' E 113°13'0 0.0
2016-Jan-05 07:24N 21°54' E 113°13'0 0.0
2016-Jan-05 06:31N 21°54' E 113°13'0 0.0
2016-Jan-05 05:30N 21°54' E 113°13'0 0.1
2016-Jan-05 02:27N 21°54' E 113°13'2 2.1
2016-Jan-05 01:33N 21°52' E 113°13'6 5.7
2016-Jan-05 00:33N 21°47' E 113°13'1 0.6
2016-Jan-04 23:17N 21°47' E 113°14'  
2016-Jan-01 10:27N 01°15' E 104°11'1112.3
2016-Jan-01 09:33N 01°14' E 104°00'1 0.9
2016-Jan-01 08:33N 01°14' E 103°59'1 1.1
2016-Jan-01 07:33N 01°14' E 104°00'1 0.8
2016-Jan-01 06:33N 01°14' E 103°60'0 0.2
2016-Jan-01 05:33N 01°14' E 103°60'0 0.2
2016-Jan-01 04:33N 01°14' E 103°60'1 0.6
2016-Jan-01 03:33N 01°14' E 103°59'6 6.4
2016-Jan-01 02:33N 01°12' E 103°53'1313.2
2016-Jan-01 01:33N 01°04' E 103°42'  
Track history (hours):
 
Tides and Currents Weather Stations Pressure Air Temp Water Temp Dewpoint Dewpoint Depression Visibility Wind Speed Wind Dir Waves Ship Positions

Al Rekayyat

Last reported at 2016-Jan-10 22:33 UTC. Time now 2016-Feb-09 15:58 UTC.
Position N 02°07' E 102°06'.
Warning: this ship's position is 29 days out of date.

Length 315 m; draft 9.4 m.

Type: Ship (hazmat cat D). MMSI: 538003347.

Date/timePositionNaut miles runAvg speedWind from/ knotsBaromVisibWave heightAir tempDewpointWater temp
2016-Jan-10 22:33N 02°07' E 102°06'1615.4
2016-Jan-10 21:29N 01°55' E 102°18'1616.8
2016-Jan-10 20:33N 01°49' E 102°32'7316.4
2016-Jan-10 16:06N 01°12' E 103°35'610.9
2016-Jan-10 15:33N 01°11' E 103°41'0 0.2
2016-Jan-10 14:29N 01°11' E 103°41'0 0.1
2016-Jan-10 11:19N 01°11' E 103°41'0 0.1
2016-Jan-10 10:31N 01°11' E 103°41'0 0.1
2016-Jan-10 09:32N 01°11' E 103°41'0 0.1
2016-Jan-10 08:33N 01°11' E 103°41'0 0.0
2016-Jan-10 07:24N 01°11' E 103°41'0 0.0
2016-Jan-10 02:19N 01°11' E 103°41'0 0.2
2016-Jan-10 01:31N 01°11' E 103°41'0 0.1
2016-Jan-09 22:27N 01°11' E 103°41'0 0.0
2016-Jan-09 21:28N 01°11' E 103°41'0 0.0
2016-Jan-09 20:16N 01°11' E 103°41'0 0.1
2016-Jan-09 19:20N 01°11' E 103°41'0 0.1
2016-Jan-09 18:18N 01°11' E 103°41'1 0.2
2016-Jan-09 13:31N 01°10' E 103°41'6 6.3
2016-Jan-09 12:33N 01°10' E 103°47'2 2.5
2016-Jan-09 11:32N 01°11' E 103°49'5 5.0
2016-Jan-09 10:33N 01°13' E 103°54'8 8.4
2016-Jan-09 09:33N 01°15' E 104°02'  
2016-Jan-06 09:34N 21°51' E 113°13'3 2.8
2016-Jan-06 08:26N 21°54' E 113°13'0 0.0
2016-Jan-06 07:32N 21°54' E 113°13'0 0.0
2016-Jan-06 06:33N 21°54' E 113°13'0 0.0
2016-Jan-06 05:28N 21°54' E 113°13'0 0.0
2016-Jan-06 04:28N 21°54' E 113°13'0 0.0
2016-Jan-06 03:23N 21°54' E 113°13'0 0.0
2016-Jan-06 02:30N 21°54' E 113°13'0 0.0
2016-Jan-06 01:30N 21°54' E 113°13'0 0.0
2016-Jan-06 00:31N 21°54' E 113°13'0 0.0
2016-Jan-05 23:32N 21°54' E 113°13'0 0.0
2016-Jan-05 22:32N 21°54' E 113°13'0 0.0
2016-Jan-05 21:33N 21°54' E 113°13'0 0.0
2016-Jan-05 20:33N 21°54' E 113°13'0 0.0
2016-Jan-05 19:22N 21°54' E 113°13'0 0.0
2016-Jan-05 18:29N 21°54' E 113°13'0 0.0
2016-Jan-05 17:30N 21°54' E 113°13'0 0.0
2016-Jan-05 16:30N 21°54' E 113°13'0 0.0
2016-Jan-05 15:31N 21°54' E 113°13'0 0.0
2016-Jan-05 14:26N 21°54' E 113°13'0 0.0
2016-Jan-05 13:32N 21°54' E 113°13'0 0.0
2016-Jan-05 12:33N 21°54' E 113°13'0 0.0
2016-Jan-05 11:28N 21°54' E 113°13'0 0.0
2016-Jan-05 10:28N 21°54' E 113°13'0 0.0
2016-Jan-05 09:29N 21°54' E 113°13'0 0.0
2016-Jan-05 08:30N 21°54' E 113°13'0 0.0
2016-Jan-05 07:24N 21°54' E 113°13'0 0.0
2016-Jan-05 06:31N 21°54' E 113°13'0 0.0
2016-Jan-05 05:30N 21°54' E 113°13'0 0.1
2016-Jan-05 02:27N 21°54' E 113°13'2 2.1
2016-Jan-05 01:33N 21°52' E 113°13'6 5.7
2016-Jan-05 00:33N 21°47' E 113°13'1 0.6
2016-Jan-04 23:17N 21°47' E 113°14'  
2016-Jan-01 10:27N 01°15' E 104°11'1112.3
2016-Jan-01 09:33N 01°14' E 104°00'1 0.9
2016-Jan-01 08:33N 01°14' E 103°59'1 1.1
2016-Jan-01 07:33N 01°14' E 104°00'1 0.8
2016-Jan-01 06:33N 01°14' E 103°60'0 0.2
2016-Jan-01 05:33N 01°14' E 103°60'0 0.2
2016-Jan-01 04:33N 01°14' E 103°60'1 0.6
2016-Jan-01 03:33N 01°14' E 103°59'6 6.4
2016-Jan-01 02:33N 01°12' E 103°53'1313.2
2016-Jan-01 01:33N 01°04' E 103°42'  

Dump ship's entire track history